WXM80 ListenWXM80 Stop

You find our weather info also at:

UK Metoffice

WeatherCloud

Weather Underground

Northeastern Weather Network

AWEKAS

Citizen Weather Observer Program (CWOP)

HAMweather, WeatherForYou, PWS Weather


Weather Underground History page Text

Daily Summary for December 23, 2017 Units:  Metric    English   Both
« Previous Day
Next Day »
Daily Weekly Monthly Yearly Custom
  High: Low: Average:
Temperature: 11.2 °C 1.8 °C 5.9 °C
Dew Point: 10.8 °C 1.2 °C 5.4 °C
Humidity: 99 % 92 % 97 %
Wind Speed: 18.8 km/h 0 km/h 6.9 km/h
Wind Gust: 33.8 km/h - -
Wind:- - SSE
Pressure: 1020.9 hPa 1002.9 hPa -
Precipitation: 7.11 mm    
Historical Graphs
 
 
Tabular Data for December 23, 2017
Time Temperature Dew Point Pressure Wind Wind Speed Wind Gust Humidity Rainfall Rate (Hourly)
00:04 2.1 °C 1.2 °C 1020.5 hPa ENE 6.9 km/h 13 km/h 94 % 0 mm
00:06 2.1 °C 1.2 °C 1020.2 hPa ENE 8 km/h 12.9 km/h 94 % 0 mm
00:11 2.1 °C 1.2 °C 1020.2 hPa East 4.8 km/h 11.3 km/h 94 % 0 mm
00:16 2.1 °C 1.4 °C 1020.5 hPa ENE 6.8 km/h 9.3 km/h 95 % 0 mm
00:17 2.1 °C 1.4 °C 1020.5 hPa ENE 6 km/h 7.4 km/h 95 % 0 mm
00:22 2.1 °C 1.4 °C 1020.5 hPa ENE 5.6 km/h 9.3 km/h 95 % 0 mm
00:23 2.1 °C 1.4 °C 1020.5 hPa East 5.3 km/h 8 km/h 95 % 0 mm
00:28 2.1 °C 1.4 °C 1020.5 hPa ENE 4.7 km/h 11.1 km/h 95 % 0 mm
00:29 2.1 °C 1.4 °C 1020.5 hPa East 5.1 km/h 11.1 km/h 95 % 0 mm
00:30 2.1 °C 1.4 °C 1020.5 hPa ENE 7.7 km/h 9.3 km/h 95 % 0 mm
00:34 2.1 °C 1.4 °C 1020.9 hPa East 8.4 km/h 9.7 km/h 95 % 0 mm
00:39 2.1 °C 1.4 °C 1020.5 hPa East 6.9 km/h 11.3 km/h 95 % 0 mm
00:43 2.1 °C 1.4 °C 1020.5 hPa East 9.7 km/h 11.3 km/h 95 % 0 mm
00:48 2.1 °C 1.4 °C 1020.5 hPa East 6.9 km/h 9.3 km/h 95 % 0 mm
00:53 2.1 °C 1.4 °C 1020.5 hPa ENE 8 km/h 13 km/h 95 % 0 mm
00:54 2.1 °C 1.4 °C 1020.5 hPa East 9 km/h 13 km/h 95 % 0 mm
00:59 2.1 °C 1.4 °C 1020.2 hPa East 8.9 km/h 11.3 km/h 95 % 0 mm
01:04 2.1 °C 1.4 °C 1020.5 hPa ENE 7.7 km/h 12.9 km/h 95 % 0 mm
01:09 2.1 °C 1.4 °C 1020.5 hPa ENE 10.9 km/h 14.8 km/h 95 % 0 mm
01:10 2.1 °C 1.4 °C 1020.5 hPa ENE 12.1 km/h 14.8 km/h 95 % 0 mm
01:11 2.1 °C 1.4 °C 1020.2 hPa ENE 12.6 km/h 14.8 km/h 95 % 0 mm
01:15 2.1 °C 1.3 °C 1020.5 hPa ENE 9.2 km/h 14.8 km/h 95 % 0 mm
01:19 2.1 °C 1.3 °C 1020.5 hPa ENE 8 km/h 13 km/h 95 % 0 mm
01:21 2.1 °C 1.3 °C 1020.2 hPa East 12.6 km/h 14.8 km/h 95 % 0 mm
01:26 2.1 °C 1.3 °C 1020.2 hPa ENE 13.7 km/h 18.5 km/h 95 % 0 mm
01:28 2.1 °C 1.3 °C 1020.2 hPa ENE 10.9 km/h 19.3 km/h 95 % 0 mm
01:33 2.1 °C 1.3 °C 1019.9 hPa NE 14.6 km/h 16.7 km/h 95 % 0 mm
01:35 2 °C 1.3 °C 1019.9 hPa ENE 12.4 km/h 18.5 km/h 95 % 0 mm
01:39 2 °C 1.3 °C 1019.5 hPa ENE 13 km/h 18.5 km/h 95 % 0 mm
01:44 1.9 °C 1.4 °C 1019.5 hPa ENE 11.7 km/h 18.5 km/h 96 % 0 mm
01:49 1.9 °C 1.4 °C 1019.5 hPa ENE 16.3 km/h 20.9 km/h 96 % 0 mm
01:54 1.9 °C 1.4 °C 1019.2 hPa NE 11.6 km/h 16.7 km/h 96 % 0 mm
01:59 1.9 °C 1.4 °C 1019.2 hPa ENE 17.2 km/h 20.4 km/h 96 % 0 mm
02:00 1.9 °C 1.4 °C 1019.2 hPa NE 16.3 km/h 22.5 km/h 96 % 0 mm
02:05 1.9 °C 1.4 °C 1019.2 hPa ENE 12.7 km/h 22.2 km/h 96 % 0 mm
02:10 1.9 °C 1.4 °C 1018.8 hPa ENE 13.4 km/h 18.5 km/h 96 % 0 mm
02:15 1.9 °C 1.4 °C 1019.2 hPa ENE 11.6 km/h 16.7 km/h 96 % 0 mm
02:17 1.9 °C 1.4 °C 1019.2 hPa East 14.2 km/h 18.5 km/h 96 % 0 mm
02:18 1.9 °C 1.4 °C 1019.2 hPa ENE 15.8 km/h 19.3 km/h 96 % 0 mm
02:23 1.9 °C 1.3 °C 1018.8 hPa ENE 13.2 km/h 18.5 km/h 96 % 0 mm
02:29 1.9 °C 1.3 °C 1019.2 hPa ENE 12.7 km/h 16.7 km/h 96 % 0 mm
02:34 1.9 °C 1.3 °C 1019.5 hPa East 7.4 km/h 11.1 km/h 96 % 0 mm
02:39 1.8 °C 1.3 °C 1020.2 hPa East 8.9 km/h 13 km/h 96 % 0 mm
02:40 1.8 °C 1.3 °C 1019.9 hPa East 7.2 km/h 11.1 km/h 96 % 0 mm
02:45 1.8 °C 1.2 °C 1019.9 hPa East 6.1 km/h 7.4 km/h 96 % 0 mm
02:47 1.8 °C 1.2 °C 1020.2 hPa East 4.2 km/h 9.7 km/h 96 % 0 mm
02:52 1.8 °C 1.2 °C 1019.9 hPa East 9.8 km/h 12.9 km/h 96 % 0 mm
02:57 1.8 °C 1.2 °C 1019.5 hPa East 8 km/h 11.1 km/h 96 % 0 mm
03:02 1.8 °C 1.2 °C 1019.5 hPa East 10.3 km/h 13 km/h 96 % 0 mm
03:07 1.8 °C 1.2 °C 1019.5 hPa East 10.1 km/h 14.8 km/h 96 % 0 mm
03:12 1.8 °C 1.2 °C 1019.5 hPa ENE 9.3 km/h 14.8 km/h 96 % 0 mm
03:14 1.8 °C 1.3 °C 1019.2 hPa East 8.7 km/h 9.7 km/h 96 % 0 mm
03:19 1.8 °C 1.3 °C 1019.2 hPa East 9.3 km/h 13 km/h 96 % 0 mm
03:20 1.8 °C 1.3 °C 1019.2 hPa East 9.2 km/h 11.1 km/h 96 % 0 mm
03:25 1.8 °C 1.3 °C 1018.8 hPa East 9.3 km/h 13 km/h 96 % 0 mm
03:31 1.9 °C 1.3 °C 1018.5 hPa East 7.9 km/h 11.3 km/h 96 % 0 mm
03:32 1.9 °C 1.3 °C 1018.5 hPa East 5.1 km/h 9.3 km/h 96 % 0 mm
03:37 1.9 °C 1.4 °C 1018.8 hPa East 2.7 km/h 7.4 km/h 96 % 0 mm
03:40 1.9 °C 1.4 °C 1018.8 hPa East 5.6 km/h 9.3 km/h 96 % 0 mm
03:45 1.9 °C 1.4 °C 1018.8 hPa East 3.5 km/h 5.6 km/h 96 % 0 mm
03:47 1.9 °C 1.4 °C 1018.8 hPa East 1.8 km/h 3.7 km/h 96 % 0 mm
03:52 2 °C 1.4 °C 1018.5 hPa ENE 4.8 km/h 7.4 km/h 96 % 0 mm
03:55 2 °C 1.4 °C 1018.5 hPa ENE 4.5 km/h 5.6 km/h 96 % 0 mm
04:00 2.1 °C 1.5 °C 1018.8 hPa ENE 4.3 km/h 11.1 km/h 96 % 0 mm
04:01 2.1 °C 1.6 °C 1018.8 hPa ENE 4.2 km/h 7.4 km/h 96 % 0 mm
04:06 2.1 °C 1.6 °C 1018.8 hPa East 6.6 km/h 9.7 km/h 96 % 0 mm
04:11 2.2 °C 1.7 °C 1018.8 hPa East 7.2 km/h 9.3 km/h 97 % 0 mm
04:16 2.2 °C 1.7 °C 1018.8 hPa ENE 5 km/h 7.4 km/h 97 % 0 mm
04:22 2.2 °C 1.7 °C 1019.2 hPa East 4.3 km/h 8 km/h 97 % 0 mm
04:23 2.2 °C 1.7 °C 1019.2 hPa East 3.4 km/h 5.6 km/h 97 % 0 mm
04:28 2.2 °C 1.8 °C 1018.8 hPa ENE 3.4 km/h 5.6 km/h 97 % 0 mm
04:30 2.2 °C 1.8 °C 1018.8 hPa ENE 3.9 km/h 5.6 km/h 97 % 0 mm
04:33 2.2 °C 1.8 °C 1018.8 hPa ENE 3.7 km/h 7.4 km/h 97 % 0 mm
04:38 2.3 °C 1.8 °C 1018.8 hPa ENE 4.2 km/h 5.6 km/h 97 % 0 mm
04:39 2.3 °C 1.9 °C 1018.8 hPa ENE 3.9 km/h 5.6 km/h 97 % 0 mm
04:41 2.3 °C 1.9 °C 1018.8 hPa ENE 4 km/h 5.6 km/h 97 % 0 mm
04:44 2.3 °C 1.9 °C 1018.8 hPa East 3.1 km/h 7.4 km/h 97 % 0 mm
04:49 2.4 °C 1.9 °C 1018.5 hPa East 6.4 km/h 8 km/h 97 % 0 mm
04:54 2.4 °C 2 °C 1018.5 hPa East 8.9 km/h 11.1 km/h 97 % 0 mm
04:57 2.5 °C 2.1 °C 1018.2 hPa ESE 5.8 km/h 8 km/h 97 % 0 mm
05:02 2.6 °C 2.1 °C 1017.8 hPa East 8.2 km/h 9.7 km/h 97 % 0 mm
05:07 2.6 °C 2.2 °C 1017.8 hPa East 5.5 km/h 7.4 km/h 97 % 0 mm
05:11 2.7 °C 2.2 °C 1017.8 hPa ENE 9 km/h 11.3 km/h 97 % 0 mm
05:16 2.7 °C 2.3 °C 1018.2 hPa East 5.6 km/h 8 km/h 97 % 0 mm
05:17 2.7 °C 2.3 °C 1018.2 hPa East 5 km/h 7.4 km/h 97 % 0 mm
05:22 2.8 °C 2.3 °C 1018.2 hPa East 3.4 km/h 5.6 km/h 97 % 0 mm
05:27 2.8 °C 2.3 °C 1018.2 hPa East 5.3 km/h 7.4 km/h 97 % 0 mm
05:29 2.8 °C 2.3 °C 1018.2 hPa ENE 5 km/h 7.4 km/h 97 % 0 mm
05:31 2.8 °C 2.3 °C 1018.2 hPa East 6.4 km/h 11.1 km/h 97 % 0 mm
05:36 2.8 °C 2.3 °C 1017.8 hPa East 6.3 km/h 9.3 km/h 97 % 0 mm
05:41 2.8 °C 2.4 °C 1018.2 hPa East 0.5 km/h 3.7 km/h 97 % 0 mm
05:46 2.8 °C 2.4 °C 1018.2 hPa East 2.4 km/h 7.4 km/h 97 % 0 mm
05:47 2.8 °C 2.4 °C 1018.2 hPa East 1.8 km/h 7.4 km/h 97 % 0 mm
05:48 2.8 °C 2.4 °C 1018.2 hPa East 2.1 km/h 5.6 km/h 97 % 0 mm
05:53 2.8 °C 2.4 °C 1017.8 hPa East 2.9 km/h 5.6 km/h 97 % 0 mm
05:57 2.9 °C 2.4 °C 1017.8 hPa East 2.3 km/h 5.6 km/h 97 % 0 mm
06:01 2.9 °C 2.5 °C 1017.8 hPa East 3.5 km/h 7.4 km/h 97 % 0 mm
06:05 2.9 °C 2.5 °C 1017.8 hPa East 5.3 km/h 8 km/h 97 % 0 mm
06:08 2.9 °C 2.5 °C 1017.5 hPa East 1.8 km/h 3.2 km/h 97 % 0 mm
06:12 3 °C 2.6 °C 1017.5 hPa East 5.8 km/h 8 km/h 97 % 0 mm
06:14 3 °C 2.6 °C 1017.5 hPa East 3.7 km/h 8 km/h 97 % 0 mm
06:19 3.1 °C 2.6 °C 1017.5 hPa East 7.4 km/h 9.7 km/h 97 % 0 mm
06:20 3.1 °C 2.6 °C 1017.2 hPa East 8.9 km/h 9.7 km/h 97 % 0 mm
06:25 3.1 °C 2.7 °C 1017.2 hPa East 4.2 km/h 8 km/h 97 % 0 mm
06:27 3.2 °C 2.7 °C 1017.2 hPa East 5.8 km/h 9.3 km/h 97 % 0 mm
06:32 3.2 °C 2.8 °C 1016.8 hPa East 7.9 km/h 9.7 km/h 97 % 0 mm
06:35 3.3 °C 2.8 °C 1017.2 hPa East 6.3 km/h 9.3 km/h 97 % 0 mm
06:40 3.3 °C 2.9 °C 1016.8 hPa ENE 7.9 km/h 13 km/h 97 % 0 mm
06:41 3.4 °C 2.9 °C 1016.8 hPa East 6.8 km/h 13 km/h 97 % 0 mm
06:43 3.4 °C 2.9 °C 1016.8 hPa East 10.3 km/h 16.7 km/h 97 % 0 mm
06:48 3.4 °C 3 °C 1016.8 hPa East 7.9 km/h 13 km/h 97 % 0 mm
06:53 3.5 °C 3.1 °C 1016.5 hPa ENE 11.4 km/h 13 km/h 97 % 0 mm
06:57 3.6 °C 3.1 °C 1016.5 hPa ENE 11.9 km/h 18.5 km/h 97 % 0 mm
06:58 3.6 °C 3.1 °C 1016.8 hPa NE 6.9 km/h 14.8 km/h 97 % 0 mm
07:04 3.7 °C 3.2 °C 1016.8 hPa ENE 10.1 km/h 12.9 km/h 97 % 0 mm
07:05 3.7 °C 3.2 °C 1016.8 hPa East 7.7 km/h 11.1 km/h 97 % 0 mm
07:07 3.7 °C 3.3 °C 1017.2 hPa East 6.6 km/h 9.7 km/h 97 % 0 mm
07:11 3.7 °C 3.3 °C 1016.8 hPa ENE 7.9 km/h 13 km/h 97 % 0 mm
07:16 3.8 °C 3.3 °C 1016.8 hPa East 7.9 km/h 11.3 km/h 97 % 0 mm
07:22 3.8 °C 3.4 °C 1016.8 hPa East 7.9 km/h 11.3 km/h 97 % 0 mm
07:23 3.8 °C 3.4 °C 1016.8 hPa ENE 5.5 km/h 11.1 km/h 97 % 0 mm
07:28 3.9 °C 3.5 °C 1016.8 hPa ENE 7.2 km/h 11.1 km/h 97 % 0 mm
07:33 3.9 °C 3.5 °C 1016.5 hPa East 7.1 km/h 13 km/h 97 % 0 mm
07:34 4 °C 3.6 °C 1016.5 hPa ENE 8.9 km/h 14.8 km/h 97 % 0 mm
07:39 4 °C 3.6 °C 1016.8 hPa ENE 5.5 km/h 5.6 km/h 97 % 0 mm
07:43 3.9 °C 3.5 °C 1016.5 hPa ENE 12.1 km/h 14.5 km/h 97 % 0 mm
07:46 3.9 °C 3.4 °C 1016.1 hPa ENE 12.9 km/h 18.5 km/h 97 % 0 mm
07:51 3.7 °C 3.3 °C 1015.8 hPa East 11.6 km/h 16.7 km/h 97 % 0 mm
07:54 3.7 °C 3.2 °C 1016.1 hPa ENE 12.7 km/h 18.5 km/h 97 % 0.25 mm
07:59 3.6 °C 3.2 °C 1016.1 hPa ENE 11.4 km/h 14.8 km/h 97 % 0.25 mm
08:04 3.5 °C 3.1 °C 1016.5 hPa East 9.7 km/h 16.1 km/h 97 % 0.25 mm
08:06 3.5 °C 3.1 °C 1016.1 hPa ENE 10.8 km/h 16.7 km/h 97 % 0.25 mm
08:11 3.4 °C 3 °C 1016.1 hPa ENE 11.9 km/h 16.1 km/h 97 % 0.25 mm
08:16 3.4 °C 2.9 °C 1016.5 hPa East 12.6 km/h 14.5 km/h 97 % 0.25 mm
08:19 3.3 °C 2.9 °C 1016.1 hPa East 11.1 km/h 18.5 km/h 97 % 0.25 mm
08:24 3.3 °C 2.8 °C 1015.8 hPa East 13.2 km/h 18.5 km/h 97 % 0.25 mm
08:28 3.3 °C 2.8 °C 1015.8 hPa NE 11.1 km/h 18.5 km/h 97 % 0.51 mm
08:33 3.3 °C 2.8 °C 1015.5 hPa ENE 11.1 km/h 16.7 km/h 97 % 0.51 mm
08:35 3.3 °C 2.8 °C 1015.5 hPa East 11.7 km/h 17.7 km/h 97 % 0.51 mm
08:40 3.3 °C 2.9 °C 1015.1 hPa ENE 13 km/h 19.3 km/h 97 % 0.51 mm
08:42 3.3 °C 2.9 °C 1015.1 hPa East 12.1 km/h 18.5 km/h 97 % 0.51 mm
08:47 3.3 °C 2.9 °C 1015.1 hPa NE 14 km/h 17.7 km/h 97 % 0.51 mm
08:49 3.3 °C 2.9 °C 1015.1 hPa ENE 11.6 km/h 16.7 km/h 97 % 0.51 mm
08:54 3.3 °C 2.9 °C 1014.8 hPa ENE 9 km/h 16.7 km/h 97 % 0.25 mm
08:57 3.4 °C 2.9 °C 1014.8 hPa ENE 11.3 km/h 16.7 km/h 97 % 0.25 mm
09:03 3.4 °C 3 °C 1014.4 hPa ENE 13.5 km/h 14.5 km/h 97 % 0.25 mm
09:06 3.5 °C 3.1 °C 1014.4 hPa ENE 13 km/h 18.5 km/h 97 % 0.25 mm
09:11 3.6 °C 3.2 °C 1014.4 hPa East 12.1 km/h 16.7 km/h 97 % 0.25 mm
09:17 3.7 °C 3.2 °C 1014.1 hPa ENE 10 km/h 14.8 km/h 97 % 0.25 mm
09:21 3.7 °C 3.3 °C 1014.1 hPa ENE 8.9 km/h 13 km/h 97 % 0.25 mm
09:25 3.8 °C 3.3 °C 1014.4 hPa ENE 9.2 km/h 13 km/h 97 % 0.25 mm
09:27 3.8 °C 3.3 °C 1014.4 hPa East 9.3 km/h 14.5 km/h 97 % 0 mm
09:32 3.8 °C 3.3 °C 1014.1 hPa East 9.3 km/h 13 km/h 97 % 0.25 mm
09:33 3.8 °C 3.4 °C 1014.1 hPa ENE 9.8 km/h 16.1 km/h 97 % 0.25 mm
09:38 3.8 °C 3.4 °C 1014.1 hPa East 9 km/h 14.8 km/h 97 % 0.25 mm
09:39 3.9 °C 3.4 °C 1014.1 hPa ENE 9 km/h 13 km/h 97 % 0.25 mm
09:41 3.9 °C 3.4 °C 1014.1 hPa ENE 10.1 km/h 14.8 km/h 97 % 0.25 mm
09:46 4 °C 3.7 °C 1014.1 hPa ENE 9.5 km/h 13 km/h 98 % 0.25 mm
09:47 4.1 °C 3.8 °C 1013.8 hPa ENE 10.9 km/h 18.5 km/h 98 % 0.25 mm
09:48 4.1 °C 3.8 °C 1013.8 hPa East 10.6 km/h 18.5 km/h 98 % 0.25 mm
09:53 4.2 °C 3.7 °C 1013.8 hPa ENE 10.3 km/h 16.7 km/h 97 % 0.51 mm
09:56 4.2 °C 3.8 °C 1013.8 hPa ENE 11.3 km/h 19.3 km/h 97 % 0 mm
09:59 4.3 °C 3.8 °C 1013.4 hPa ENE 11.9 km/h 14.8 km/h 97 % 0.76 mm
10:04 4.3 °C 4.1 °C 1013.1 hPa ENE 12.1 km/h 16.7 km/h 98 % 0.76 mm
10:10 4.4 °C 4.2 °C 1013.4 hPa East 8 km/h 14.8 km/h 98 % 1.02 mm
10:14 4.5 °C 4.2 °C 1013.4 hPa ENE 7.1 km/h 8 km/h 98 % 1.27 mm
10:16 4.5 °C 4.2 °C 1013.4 hPa ENE 10 km/h 14.8 km/h 98 % 1.27 mm
10:21 4.5 °C 4.2 °C 1013.1 hPa ENE 6.4 km/h 11.1 km/h 98 % 1.27 mm
10:26 4.4 °C 4.2 °C 1013.1 hPa ENE 9.8 km/h 13 km/h 98 % 1.27 mm
10:27 4.4 °C 4.2 °C 1013.1 hPa ENE 8.9 km/h 13 km/h 98 % 1.27 mm
10:30 4.4 °C 4.2 °C 1013.1 hPa ENE 10.1 km/h 17.7 km/h 98 % 1.27 mm
10:33 4.4 °C 4.2 °C 1012.8 hPa ENE 7.1 km/h 13 km/h 98 % 1.02 mm
10:38 4.5 °C 4.1 °C 1013.1 hPa NE 3.7 km/h 9.3 km/h 97 % 1.27 mm
10:41 4.5 °C 4.1 °C 1012.8 hPa ENE 4.8 km/h 11.3 km/h 97 % 0 mm
10:43 4.5 °C 4.1 °C 1012.4 hPa ENE 8.4 km/h 12.9 km/h 97 % 1.52 mm
10:48 4.6 °C 4.2 °C 1012.1 hPa ENE 7.2 km/h 8 km/h 97 % 1.52 mm
10:52 4.6 °C 4.2 °C 1012.1 hPa ENE 10.1 km/h 13 km/h 97 % 1.27 mm
10:53 4.6 °C 4.2 °C 1012.1 hPa ENE 10.5 km/h 16.7 km/h 97 % 1.52 mm
10:58 4.6 °C 4.1 °C 1011.4 hPa ENE 10.3 km/h 14.8 km/h 97 % 1.27 mm
11:00 4.6 °C 4.1 °C 1011.4 hPa ENE 10 km/h 18.5 km/h 97 % 1.27 mm
11:08 4.6 °C 4.1 °C 1011.1 hPa ENE 6.1 km/h 13 km/h 97 % 1.02 mm
11:14 4.4 °C 4.2 °C 1010.4 hPa ENE 10.3 km/h 11.1 km/h 98 % 0.76 mm
11:15 4.4 °C 4.2 °C 1010.4 hPa ENE 12.7 km/h 18.5 km/h 98 % 0.76 mm
11:16 4.4 °C 4.2 °C 1010.4 hPa ENE 12.2 km/h 18.5 km/h 98 % 0.76 mm
11:21 4.3 °C 4.1 °C 1010.4 hPa ENE 7.4 km/h 13 km/h 98 % 1.02 mm
11:25 4.3 °C 3.9 °C 1010.4 hPa NE 6.6 km/h 8 km/h 97 % 1.02 mm
11:30 4.3 °C 4.1 °C 1010.4 hPa ENE 7.1 km/h 14.8 km/h 98 % 1.27 mm
11:33 4.4 °C 4.1 °C 1010 hPa ENE 8.4 km/h 13 km/h 98 % 1.27 mm
11:38 4.5 °C 4.2 °C 1010 hPa ENE 10.6 km/h 14.8 km/h 98 % 1.02 mm
11:41 4.7 °C 4.4 °C 1009.7 hPa ENE 9.3 km/h 16.7 km/h 98 % 1.27 mm
11:46 4.9 °C 4.7 °C 1009.4 hPa ENE 7.1 km/h 11.3 km/h 98 % 1.02 mm
11:50 5 °C 4.7 °C 1009 hPa ENE 10 km/h 16.7 km/h 98 % 1.02 mm
11:55 5.2 °C 4.9 °C 1009 hPa East 9.3 km/h 13 km/h 98 % 1.02 mm
12:00 5.4 °C 5.2 °C 1008.7 hPa East 6.4 km/h 9.3 km/h 98 % 1.02 mm
12:04 5.6 °C 5.3 °C 1008.7 hPa East 6.6 km/h 9.3 km/h 98 % 1.02 mm
12:05 5.6 °C 5.3 °C 1008.4 hPa East 8.7 km/h 9.7 km/h 98 % 1.02 mm
12:11 5.7 °C 5.4 °C 1008.7 hPa East 3.2 km/h 9.7 km/h 98 % 0 mm
12:16 5.8 °C 5.5 °C 1008.4 hPa ENE 5.6 km/h 6.4 km/h 98 % 1.02 mm
12:17 5.8 °C 5.5 °C 1008.7 hPa ENE 5.5 km/h 7.4 km/h 98 % 1.02 mm
12:22 5.8 °C 5.6 °C 1008.4 hPa East 5.1 km/h 5.6 km/h 98 % 1.27 mm
12:24 5.9 °C 5.6 °C 1008.4 hPa East 4.8 km/h 7.4 km/h 98 % 1.27 mm
12:29 5.9 °C 5.7 °C 1008 hPa ENE 5 km/h 7.4 km/h 98 % 1.02 mm
12:34 5.9 °C 5.7 °C 1008 hPa ENE 4.5 km/h 5.6 km/h 98 % 1.27 mm
12:37 6 °C 5.7 °C 1007.7 hPa ENE 4.3 km/h 5.6 km/h 98 % 1.27 mm
12:41 6 °C 5.7 °C 1007.7 hPa ENE 4.2 km/h 11.1 km/h 98 % 1.27 mm
12:46 6.1 °C 5.8 °C 1007.3 hPa ENE 5.5 km/h 5.6 km/h 98 % 1.52 mm
12:51 6.1 °C 5.8 °C 1007.3 hPa ENE 1.8 km/h 3.7 km/h 98 % 1.52 mm
12:53 6.1 °C 5.8 °C 1007.7 hPa Calm   3.7 km/h 98 % 1.27 mm
12:58 6.1 °C 5.8 °C 1007.3 hPa NNE 2.9 km/h 5.6 km/h 98 % 1.52 mm
12:59 6.1 °C 5.8 °C 1007 hPa NNE 3.4 km/h 5.6 km/h 98 % 1.52 mm
13:00 6.1 °C 5.8 °C 1007 hPa NNE 2.1 km/h 5.6 km/h 98 % 1.78 mm
13:05 6.2 °C 5.9 °C 1007 hPa NE 1.4 km/h 5.6 km/h 98 % 2.03 mm
13:08 6.2 °C 5.9 °C 1006.7 hPa NE 2.3 km/h 5.6 km/h 98 % 1.78 mm
13:14 6.2 °C 5.9 °C 1006.7 hPa SSE 1.3 km/h 3.7 km/h 98 % 1.78 mm
13:15 6.2 °C 5.9 °C 1006.3 hPa SE 3.9 km/h 6.4 km/h 98 % 2.03 mm
13:20 6.2 °C 5.9 °C 1006 hPa NE 2.6 km/h 7.4 km/h 98 % 1.78 mm
13:23 6.2 °C 5.9 °C 1006 hPa WSW 0.3 km/h 5.6 km/h 98 % 2.03 mm
13:28 6.3 °C 6 °C 1005.6 hPa Calm     98 % 2.03 mm
13:30 6.3 °C 6 °C 1005.3 hPa Calm     98 % 2.03 mm
13:35 6.3 °C 6 °C 1005.3 hPa Calm     98 % 1.78 mm
13:40 6.3 °C 6.1 °C 1005 hPa SSW 6.6 km/h 11.1 km/h 98 % 1.52 mm
13:43 6.4 °C 6.2 °C 1005 hPa SSW 7.2 km/h 16.7 km/h 98 % 1.52 mm
13:44 6.4 °C 6.2 °C 1005 hPa SSW 8.5 km/h 16.7 km/h 98 % 1.52 mm
13:49 7.8 °C 7.6 °C 1004.6 hPa SSW 10.8 km/h 18.5 km/h 98 % 1.27 mm
13:54 8.7 °C 8.4 °C 1004.6 hPa SSW 12.6 km/h 24.1 km/h 98 % 1.27 mm
13:55 8.8 °C 8.6 °C 1004.6 hPa SSW 12.4 km/h 24.1 km/h 98 % 1.27 mm
14:00 9.5 °C 9.2 °C 1004.3 hPa SW 7.9 km/h 24.1 km/h 98 % 0.76 mm
14:05 9.9 °C 9.6 °C 1004.3 hPa SW 15.9 km/h 24.1 km/h 98 % 0.51 mm
14:06 9.9 °C 9.7 °C 1004.3 hPa South 12.6 km/h 24.1 km/h 98 % 0.51 mm
14:11 10.2 °C 9.9 °C 1004.3 hPa SSW 13 km/h 24.1 km/h 98 % 0.51 mm
14:13 10.3 °C 10 °C 1003.9 hPa South 5.8 km/h 18.5 km/h 98 % 0.51 mm
14:17 10.4 °C 10.2 °C 1003.9 hPa SSW 15.1 km/h 25.9 km/h 99 % 0.25 mm
14:21 10.4 °C 10.3 °C 1003.9 hPa SSW 13.5 km/h 18.5 km/h 99 % 0 mm
14:28 10.6 °C 10.3 °C 1003.9 hPa SSW 9.3 km/h 18.5 km/h 98 % 0 mm
14:29 10.6 °C 10.3 °C 1003.9 hPa SSW 7.4 km/h 16.7 km/h 98 % 0 mm
14:34 10.6 °C 10.3 °C 1003.9 hPa SW 13.7 km/h 18.5 km/h 98 % 0 mm
14:36 10.6 °C 10.3 °C 1003.9 hPa South 7.9 km/h 20.4 km/h 98 % 0 mm
14:41 10.7 °C 10.4 °C 1003.6 hPa SSW 11.1 km/h 18.5 km/h 98 % 0 mm
14:42 10.7 °C 10.4 °C 1003.3 hPa SSW 15.9 km/h 33.8 km/h 98 % 0 mm
14:47 10.7 °C 10.5 °C 1003.6 hPa SSW 7.7 km/h 14.8 km/h 99 % 0 mm
14:52 10.7 °C 10.6 °C 1003.3 hPa SSW 9.5 km/h 16.7 km/h 99 % 0 mm
14:55 10.7 °C 10.4 °C 1003.3 hPa SSE 10.9 km/h 18.5 km/h 98 % 0 mm
15:00 10.8 °C 10.5 °C 1003.3 hPa SSW 10 km/h 14.8 km/h 98 % 0 mm
15:05 10.8 °C 10.5 °C 1003.3 hPa SSW 14.5 km/h 24.1 km/h 98 % 0 mm
15:06 10.8 °C 10.5 °C 1003.3 hPa SSW 12.2 km/h 20.4 km/h 98 % 0 mm
15:11 10.8 °C 10.6 °C 1003.3 hPa SW 16.7 km/h 29.6 km/h 98 % 0 mm
15:17 10.8 °C 10.6 °C 1003.3 hPa SW 9.2 km/h 18.5 km/h 98 % 0 mm
15:22 10.9 °C 10.6 °C 1003.3 hPa SSW 9.8 km/h 20.9 km/h 98 % 0 mm
15:23 10.9 °C 10.6 °C 1003.3 hPa SW 18.8 km/h 24.1 km/h 98 % 0 mm
15:28 10.9 °C 10.6 °C 1003.6 hPa WSW 7.2 km/h 18.5 km/h 98 % 0 mm
15:30 10.9 °C 10.7 °C 1003.3 hPa SSW 16.3 km/h 30.6 km/h 98 % 0 mm
15:35 10.9 °C 10.7 °C 1003.3 hPa SSW 11.7 km/h 27.4 km/h 98 % 0 mm
15:40 11 °C 10.7 °C 1003.3 hPa South 8 km/h 16.7 km/h 98 % 0 mm
15:43 11 °C 10.7 °C 1002.9 hPa SSW 13 km/h 20.4 km/h 98 % 0 mm
15:45 11 °C 10.7 °C 1002.9 hPa SSW 10.6 km/h 24.1 km/h 98 % 0 mm
15:50 11 °C 10.7 °C 1002.9 hPa South 9.2 km/h 18.5 km/h 98 % 0 mm
15:51 11 °C 10.7 °C 1003.3 hPa SSW 9.7 km/h 19.3 km/h 98 % 0 mm
15:56 11.1 °C 10.8 °C 1003.3 hPa SSW 9.7 km/h 22.5 km/h 98 % 0 mm
16:01 11.1 °C 10.8 °C 1002.9 hPa SSW 6.1 km/h 16.7 km/h 98 % 0 mm
16:02 11.1 °C 10.8 °C 1003.3 hPa South 11.4 km/h 13 km/h 98 % 0 mm
16:07 11.1 °C 10.8 °C 1003.3 hPa SSW 6.4 km/h 14.8 km/h 98 % 0 mm
16:12 11.1 °C 10.8 °C 1003.6 hPa SSW 10.6 km/h 16.7 km/h 98 % 0 mm
16:13 11.1 °C 10.8 °C 1003.6 hPa South 7.1 km/h 11.3 km/h 98 % 0 mm
16:18 11.1 °C 10.8 °C 1003.9 hPa South 10 km/h 16.7 km/h 98 % 0 mm
16:20 11.1 °C 10.8 °C 1003.9 hPa South 6.6 km/h 18.5 km/h 98 % 0 mm
16:25 11.1 °C 10.6 °C 1003.9 hPa SSW 6.1 km/h 11.1 km/h 97 % 0 mm
16:31 11.1 °C 10.6 °C 1003.9 hPa SSW 5 km/h 14.8 km/h 97 % 0 mm
16:32 11 °C 10.6 °C 1003.9 hPa SW 8.5 km/h 11.3 km/h 97 % 0 mm
16:38 11 °C 10.6 °C 1003.9 hPa SSW 8.9 km/h 13 km/h 97 % 0 mm
16:40 11 °C 10.6 °C 1003.9 hPa West 7.1 km/h 11.3 km/h 97 % 0 mm
16:45 11 °C 10.6 °C 1003.9 hPa SW 10.5 km/h 16.7 km/h 97 % 0 mm
16:46 11 °C 10.6 °C 1003.9 hPa SSW 5.3 km/h 16.7 km/h 97 % 0 mm
16:51 11 °C 10.6 °C 1003.6 hPa SSW 8 km/h 11.1 km/h 97 % 0 mm
16:56 11 °C 10.6 °C 1003.6 hPa South 6.3 km/h 14.8 km/h 97 % 0 mm
17:01 11 °C 10.6 °C 1003.6 hPa SW 4.8 km/h 9.7 km/h 97 % 0 mm
17:06 11 °C 10.6 °C 1003.6 hPa WSW 5.8 km/h 9.3 km/h 97 % 0 mm
17:11 11 °C 10.6 °C 1003.9 hPa SSW 5.8 km/h 9.3 km/h 97 % 0 mm
17:16 11.1 °C 10.6 °C 1003.9 hPa South 4.8 km/h 11.1 km/h 97 % 0 mm
17:19 11.1 °C 10.6 °C 1003.9 hPa SSW 1.6 km/h 6.4 km/h 97 % 0 mm
17:22 11.1 °C 10.6 °C 1003.9 hPa SW 2.9 km/h 5.6 km/h 97 % 0 mm
17:25 11.1 °C 10.6 °C 1004.3 hPa SW 3.1 km/h 9.3 km/h 97 % 0 mm
17:30 11.1 °C 10.6 °C 1003.9 hPa SSW 2.9 km/h 7.4 km/h 97 % 0 mm
17:33 11.1 °C 10.6 °C 1004.3 hPa SSW 2.7 km/h 6.4 km/h 97 % 0 mm
17:34 11.1 °C 10.6 °C 1004.3 hPa SW 8.7 km/h 13 km/h 97 % 0 mm
17:39 11.1 °C 10.7 °C 1004.3 hPa SSW 4.7 km/h 9.3 km/h 97 % 0 mm
17:41 11.1 °C 10.7 °C 1004.3 hPa SSW 4.3 km/h 8 km/h 97 % 0 mm
17:46 11.1 °C 10.7 °C 1004.3 hPa SW 3.4 km/h 14.8 km/h 97 % 0 mm
17:49 11.1 °C 10.7 °C 1004.3 hPa SSW 4.5 km/h 7.4 km/h 97 % 0 mm
17:54 11.1 °C 10.7 °C 1004.3 hPa SW 4 km/h 8 km/h 97 % 0 mm
17:59 11.1 °C 10.7 °C 1004.3 hPa SSW 3.9 km/h 7.4 km/h 97 % 0 mm
18:01 11.1 °C 10.7 °C 1004.3 hPa SSW 3.4 km/h 5.6 km/h 97 % 0 mm
18:05 11.1 °C 10.7 °C 1004.3 hPa West 4.8 km/h 8 km/h 97 % 0 mm
18:10 11.2 °C 10.7 °C 1004.3 hPa WSW 0.2 km/h 1.9 km/h 97 % 0 mm
18:15 11.2 °C 10.7 °C 1004.6 hPa West 4.8 km/h 7.4 km/h 97 % 0 mm
18:20 11.2 °C 10.7 °C 1005 hPa West 1.3 km/h 5.6 km/h 97 % 0 mm
18:24 11.2 °C 10.7 °C 1005 hPa NW 3.7 km/h 5.6 km/h 97 % 0 mm
18:29 10.8 °C 10 °C 1005.3 hPa NW 3.7 km/h 5.6 km/h 95 % 0 mm
18:30 10.7 °C 9.9 °C 1005.3 hPa NW 3.2 km/h 5.6 km/h 95 % 0 mm
18:35 10.6 °C 9.8 °C 1005.3 hPa WNW 2.1 km/h 5.6 km/h 95 % 0 mm
18:40 10.3 °C 9.4 °C 1005.6 hPa NW 2.6 km/h 6.4 km/h 94 % 0 mm
18:45 9.9 °C 8.9 °C 1006.3 hPa NNW 6.1 km/h 11.3 km/h 93 % 0 mm
18:48 9.8 °C 8.7 °C 1006.3 hPa NNW 3.7 km/h 14.8 km/h 93 % 0 mm
18:53 9.6 °C 8.6 °C 1006.3 hPa NW 4.3 km/h 5.6 km/h 94 % 0.25 mm
18:59 9.4 °C 8.5 °C 1006.3 hPa WNW 5.3 km/h 5.6 km/h 94 % 0.25 mm
19:00 9.4 °C 8.5 °C 1006.7 hPa WNW 5.3 km/h 7.4 km/h 94 % 0.25 mm
19:03 9.4 °C 8.4 °C 1006.3 hPa West 4.7 km/h 11.3 km/h 94 % 0.25 mm
19:07 9.3 °C 8.6 °C 1006.7 hPa West 4.5 km/h 9.3 km/h 95 % 0.51 mm
19:12 9.3 °C 8.5 °C 1006.7 hPa WNW 6.9 km/h 13 km/h 95 % 0.51 mm
19:14 9.3 °C 8.5 °C 1006.7 hPa NW 3.7 km/h 11.3 km/h 95 % 0.76 mm
19:15 9.3 °C 8.5 °C 1006.7 hPa NW 7.6 km/h 11.1 km/h 95 % 0.76 mm
19:20 9.2 °C 8.4 °C 1007 hPa WNW 0.5 km/h 1.9 km/h 95 % 0.76 mm
19:21 9.2 °C 8.4 °C 1007 hPa West 0.2 km/h 5.6 km/h 95 % 0.76 mm
19:26 9.2 °C 8.4 °C 1006.7 hPa WSW 3.2 km/h 5.6 km/h 95 % 0.76 mm
19:29 9.2 °C 8.4 °C 1006.7 hPa WSW 0.8 km/h 1.6 km/h 95 % 0.76 mm
19:34 9.2 °C 8.6 °C 1006.7 hPa WSW 0.2 km/h 5.6 km/h 96 % 0.76 mm
19:37 9.1 °C 8.5 °C 1006.7 hPa WSW 3.2 km/h 11.3 km/h 96 % 0.76 mm
19:42 9.1 °C 8.5 °C 1006.7 hPa WSW 0.2 km/h 1.9 km/h 96 % 0.76 mm
19:43 9.1 °C 8.4 °C 1006.7 hPa SW 4.2 km/h 5.6 km/h 96 % 0.76 mm
19:48 9.1 °C 8.4 °C 1006.7 hPa WNW 2.1 km/h 5.6 km/h 96 % 0.76 mm
19:52 9.1 °C 8.4 °C 1006.7 hPa NW 1.1 km/h 7.4 km/h 96 % 0.76 mm
19:57 9 °C 8.4 °C 1006.7 hPa West 1.4 km/h 3.7 km/h 96 % 0.76 mm
20:00 8.9 °C 8.3 °C 1006.7 hPa West 0.5 km/h 8 km/h 96 % 0.76 mm
20:05 8.9 °C 8.3 °C 1007 hPa West 1.3 km/h 5.6 km/h 96 % 0.76 mm
20:06 8.9 °C 8.3 °C 1007 hPa West 0.8 km/h 5.6 km/h 96 % 0.76 mm
20:11 8.8 °C 8.2 °C 1007 hPa West 3.7 km/h 5.6 km/h 96 % 0.51 mm
20:14 8.8 °C 8.2 °C 1007 hPa WNW 0.2 km/h 3.7 km/h 96 % 0.25 mm
20:19 8.8 °C 8 °C 1007 hPa WNW 0.3 km/h 7.4 km/h 95 % 0.25 mm
20:21 8.8 °C 8 °C 1007.3 hPa WSW 4.7 km/h 7.4 km/h 95 % 0.25 mm
20:22 8.7 °C 7.9 °C 1007.3 hPa West 5.3 km/h 9.7 km/h 95 % 0.25 mm
20:27 8.7 °C 7.9 °C 1007.7 hPa SW 3.2 km/h 6.4 km/h 95 % 0.25 mm
20:30 8.6 °C 7.8 °C 1007.7 hPa West 1.9 km/h 7.4 km/h 95 % 0.25 mm
20:35 8.6 °C 7.8 °C 1007.7 hPa West 3.4 km/h 7.4 km/h 95 % 0.25 mm
20:37 8.5 °C 7.7 °C 1007.7 hPa WNW 3.5 km/h 5.6 km/h 95 % 0.25 mm
20:42 8.4 °C 7.7 °C 1008 hPa WNW 4.8 km/h 7.4 km/h 95 % 0.25 mm
20:47 8.4 °C 7.6 °C 1008.4 hPa West 7.6 km/h 14.8 km/h 95 % 0.25 mm
20:49 8.3 °C 7.6 °C 1008 hPa WSW 5.5 km/h 13 km/h 95 % 0.25 mm
20:50 8.3 °C 7.6 °C 1008.4 hPa WSW 4.7 km/h 13 km/h 95 % 0.25 mm
20:55 8.3 °C 7.5 °C 1008.4 hPa West 4 km/h 11.1 km/h 95 % 0 mm
21:01 8.2 °C 7.4 °C 1008.4 hPa WNW 6.3 km/h 9.3 km/h 95 % 0 mm
21:03 8.2 °C 7.4 °C 1008.4 hPa WNW 4.8 km/h 11.1 km/h 95 % 0 mm
21:08 8.1 °C 7.3 °C 1008.7 hPa WNW 3.4 km/h 11.1 km/h 95 % 0 mm
21:13 8.1 °C 7.3 °C 1008.4 hPa NW 2.9 km/h 8 km/h 95 % 0 mm
21:17 8 °C 7.2 °C 1008.4 hPa WNW 0.6 km/h 7.4 km/h 95 % 0 mm
21:22 7.9 °C 7.2 °C 1008.4 hPa WNW 5 km/h 5.6 km/h 95 % 0 mm
21:23 7.9 °C 7.2 °C 1008.4 hPa NW 1 km/h 7.4 km/h 95 % 0 mm
21:24 7.9 °C 7.2 °C 1008.4 hPa WNW 2.3 km/h 7.4 km/h 95 % 0 mm
21:29 7.9 °C 7.1 °C 1008.7 hPa NNW 2.3 km/h 6.4 km/h 95 % 0 mm
21:33 7.8 °C 7.1 °C 1009 hPa NW 1.3 km/h 5.6 km/h 95 % 0 mm
21:37 7.8 °C 7.1 °C 1009.4 hPa NW 4.3 km/h 8 km/h 95 % 0 mm
21:42 7.8 °C 7 °C 1009 hPa NW 1.1 km/h 5.6 km/h 95 % 0 mm
21:48 7.7 °C 6.9 °C 1009.7 hPa WNW 4.3 km/h 7.4 km/h 95 % 0 mm
21:49 7.7 °C 6.9 °C 1009.7 hPa WNW 1.8 km/h 7.4 km/h 95 % 0 mm
21:54 7.7 °C 6.9 °C 1010 hPa West 3.9 km/h 6.4 km/h 95 % 0 mm
21:56 7.7 °C 6.9 °C 1010 hPa WNW 5 km/h 5.6 km/h 95 % 0 mm
22:01 7.7 °C 6.9 °C 1010.4 hPa NW 6.3 km/h 9.3 km/h 95 % 0 mm
22:05 7.7 °C 6.9 °C 1010.7 hPa WNW 2.4 km/h 7.4 km/h 95 % 0 mm
22:06 7.7 °C 6.9 °C 1010.7 hPa WNW 3.7 km/h 5.6 km/h 95 % 0 mm
22:12 7.6 °C 6.9 °C 1011.1 hPa WNW 1.6 km/h 6.4 km/h 95 % 0 mm
22:17 7.6 °C 6.9 °C 1010.7 hPa NW 2.1 km/h 11.1 km/h 95 % 0 mm
22:19 7.6 °C 6.8 °C 1010.7 hPa WNW 2.7 km/h 6.4 km/h 95 % 0 mm
22:24 7.6 °C 6.8 °C 1010.4 hPa NW 1.9 km/h 3.7 km/h 95 % 0 mm
22:28 7.5 °C 6.8 °C 1010.7 hPa West 2.6 km/h 6.4 km/h 95 % 0 mm
22:33 7.4 °C 6.7 °C 1011.1 hPa NW 4 km/h 8 km/h 95 % 0 mm
22:35 7.4 °C 6.7 °C 1011.1 hPa WNW 2.4 km/h 9.3 km/h 95 % 0 mm
22:40 7.4 °C 6.7 °C 1011.4 hPa WNW 3.7 km/h 9.7 km/h 95 % 0 mm
22:45 7.3 °C 6.6 °C 1011.4 hPa WNW 3.2 km/h 11.3 km/h 95 % 0 mm
22:46 7.3 °C 6.6 °C 1011.4 hPa WNW 3.4 km/h 5.6 km/h 95 % 0 mm
22:51 7.2 °C 6.5 °C 1011.7 hPa West 2.4 km/h 8 km/h 95 % 0 mm
22:54 7.2 °C 6.3 °C 1011.7 hPa NW 7.4 km/h 9.3 km/h 94 % 0 mm
22:59 7.1 °C 6.2 °C 1012.1 hPa NW 5.1 km/h 13 km/h 94 % 0 mm
23:01 7.1 °C 6.2 °C 1012.1 hPa WNW 3.9 km/h 7.4 km/h 94 % 0 mm
23:06 7 °C 6.1 °C 1012.1 hPa NW 4.2 km/h 11.3 km/h 94 % 0 mm
23:08 6.9 °C 6.1 °C 1012.4 hPa WNW 5.5 km/h 9.3 km/h 94 % 0 mm
23:13 6.9 °C 6 °C 1012.4 hPa WNW 10 km/h 14.8 km/h 94 % 0 mm
23:18 6.8 °C 5.9 °C 1012.4 hPa WNW 3.9 km/h 7.4 km/h 94 % 0 mm
23:19 6.8 °C 5.9 °C 1012.4 hPa NNW 5.5 km/h 11.3 km/h 94 % 0 mm
23:24 6.7 °C 5.8 °C 1012.8 hPa West 3.9 km/h 13 km/h 94 % 0 mm
23:25 6.7 °C 5.8 °C 1012.8 hPa WNW 4.3 km/h 13 km/h 94 % 0 mm
23:30 6.7 °C 5.8 °C 1012.8 hPa North 4.5 km/h 11.1 km/h 94 % 0 mm
23:34 6.6 °C 5.7 °C 1013.1 hPa WNW 4.8 km/h 11.1 km/h 94 % 0 mm
23:39 6.6 °C 5.7 °C 1013.1 hPa WNW 7.6 km/h 12.9 km/h 94 % 0 mm
23:40 6.6 °C 5.5 °C 1013.1 hPa WNW 6.1 km/h 13 km/h 93 % 0 mm
23:42 6.6 °C 5.5 °C 1013.1 hPa NNW 5.1 km/h 11.3 km/h 93 % 0 mm
23:47 6.5 °C 5.4 °C 1012.8 hPa NNW 7.9 km/h 11.1 km/h 93 % 0 mm
23:49 6.4 °C 5.4 °C 1012.8 hPa NNW 8.7 km/h 13 km/h 93 % 0 mm
23:52 6.4 °C 5.3 °C 1012.8 hPa NNW 5.3 km/h 12.9 km/h 93 % 0 mm
23:57 6.3 °C 5.1 °C 1013.1 hPa North 8.4 km/h 11.1 km/h 92 % 0 mm
Crab Meadow Weather
Compliments of Weather Underground - 3.5 mb

Script developed by  Jim McMurry - jmcmurry@mwt.net Adapted for the template by  Wim van der Kuil - Leuven-Template.eu

Weather Terms: Freezing Rain/Freezing Drizzle - Rain or drizzle which falls in liquid form and freezes on impact with cold surfaces to form a glaze on the ground and exposed objects.